Terminal Aerodrome Forecast
Issued by NWS

Home | Current Version | Previous Version | Text Only | Print | Product List | Glossary On
Versions: 1 2 3 4 5 6 7 8 9 10 11 12 13 14 15 16 17 18 19 20 21 22
000
FTUS41 KPHI 020530
TAFMIV
TAF
KMIV 020530Z 0206/0306 04005KT P6SM OVC004
      TEMPO 0207/0210 3SM -SHRA BR
     FM021000 07005KT 2SM BR OVC004
     FM021200 07005KT 4SM -SHRA BR OVC004
     FM021500 13005KT 6SM BR OVC007
     FM021900 18007KT P6SM OVC015
     FM030000 13005KT 5SM -SHRA BR OVC007
     FM030300 08005KT 3SM SHRA BR OVC004=

USA.gov is the U.S. government's official web portal to all federal, state and local government web resources and services.